Terminal Aerodrome Forecast
Issued by NWS

Home | Current Version | Previous Version | Text Only | Print | Product List | Glossary On
Versions: 1 2 3 4 5 6 7 8 9 10 11 12 13
267
FTUS43 KAPX 241720
TAFAPN
TAF
KAPN 241720Z 2418/2518 17005KT 5SM -SHRA OVC050
     FM242000 13005KT 6SM -SHRA OVC035
     FM242300 05004KT 6SM -SHRA OVC025
     FM250100 27005KT P6SM OVC035
     FM250400 34010KT P6SM BKN060=

USA.gov is the U.S. government's official web portal to all federal, state and local government web resources and services.